メインページ
METAR-TAF:

METAR-TAF

空港 :

アッラーマ・イクバール国際空港

ラホール, パキスタン

緯度: 31-31N, 経度: 074-24E, 海抜: 216m

現時点の気象観測

当レポートは32分前の01:25(UTC)に作成
東/北東の風 6kt
気温 8°C
湿度 93%
気圧 1015 hPa
視程: 2000m
高度4000ftの雲は散在している
高度10000ftの千切れ雲あり

METAR: OPLA 100125Z 06006KT 2000 RA SCT040 BKN100 08/07 Q1015 RMK QFE989 RMK A29.96

時間: 06:57 (01:57 UTC)

予報

当レポートは4時間12分前の21:45(UTC)に作成
予報は10日の 00時(UTC)から 11日の 06時(UTC)まで有効
東/南東の風 10kt、最大30ktの突風を伴う
視程: 2500m
高度3000ftの雲はほとんどない, 積乱雲.
高度4000ftの雲は散在している
高度10000ftの雲は散在している
激しい雷雨, 雨
10日の 06時(UTC)から 10日の 09時(UTC)まで徐々に
東/南東の風 9kt
視程: 3000m
高度4000ftの雲は散在している
高度10000ftの雲は散在している
10日の 15時(UTC)から 10日の 20時(UTC)まで徐々に
東/北東の風 5kt
視程: 3000m
高度4000ftの雲は散在している
高度10000ftの雲は散在している
11日の 03時(UTC)から 11日の 06時(UTC)まで徐々に
北/北東の風 5kt
視程: 4000m
高度10000ftの雲は散在している

TAF: OPLA 092145Z 1000/1106 12010G30KT 2500 TSRA FEW030CB SCT040 SCT100 TX18/1010Z TN06/1101Z BECMG 1006/1009 11009KT 3000 FU SCT040 SCT100 BECMG 1015/1020 06005KT 3000 FU SCT040 SCT100 BECMG 1103/1106 03005KT 4000 FU SCT100

4,000以上の空港の気象観測と天気予報(METAR報とTAF報)

利用可能な観測所は地図上に黄色い丸と赤い丸で示す。

丸の上にカーソルを重ねると観測所名を参照できる。

次にクリックすると気象観測と天気予報を参照できる。

マップの切り替え:黒色「×」印の緑ボタンをクリックして拡大、「-」印の緑ボタンをクリックして縮小、緑色の三角印をクリックして隣りの地図に切り替え


METAR-TAF: